Het weer levert geen direct gevaar op.    Er zijn geen waarschuwingen afgegeven.


Onweer radar Meer informatie blitzortung!


Regen radar Meer informatie rain snow radar


Bezoek onze andere website:

Template documentation
and downloads

And another site

Forum Leuven-template

EUWEATHER.EU

Verwachtingen Meteociel


U vindt ons ook hier:

Het Weer Aktueel

UK Metoffice

European Weather Network

WeatherCloud

Weather Underground

Benelux Weer Netwerk

AWEKAS

WeatherlinkIP

HAMweather, WeatherForYou, PWS Weather

Wetterpage 24

Wetter.com



METAR rapporten vliegvelden

   
EBAW - Antwerp
Gewijzigd: 13-10-2019 23:20
Helder  
Helder  
   Wind: ZW 13 km/h
Wind: ZW 13 km/h
Temperatuur: 15°C
Dauwpunt: 13°C
Vochtigheid: 88%
Barometer: 1012 hPa
Zicht: meer dan 10 km
Bewolking: Helder
EBAW 132120Z AUTO 22007KT CAVOK 15/13 Q1012
EBLG - Li├Ęge
Gewijzigd: 13-10-2019 23:20
Grotendeels bewolkt  
Grotendeels bewolkt  
   Wind: WNW 14.8 km/h
Wind: WNW 14.8 km/h
Temperatuur: 16°C
Dauwpunt: 14°C
Vochtigheid: 88%
Barometer: 1013 hPa
Bewolking: Grotendeels bewolkt
Zicht: meer dan 10 km
Bewolking: Grotendeels bewolkt 1800 ft
EBLG 132120Z 29008KT 9999 BKN018 16/14 Q1013 NOSIG
EBCV - Mons/Bergen
Gewijzigd: 13-10-2019 22:55
Bewolking  
Bewolking  
   Wind: ZZW 13 km/h
Wind: ZZW 13 km/h
Temperatuur: 15°C
Dauwpunt: 13°C
Vochtigheid: 88%
Barometer: 1012 hPa
Bewolking: Bewolking
Zicht: meer dan 10 km
Bewolking: Bewolking 3800 ft
EBCV 132055Z AUTO 21007KT 9999 OVC038/// 15/13 Q1012 BLU
EHBK - Maastricht
Gewijzigd: 13-10-2019 22:55
Grotendeels bewolkt  
Grotendeels bewolkt  
   Wind: Westen 22.2 km/h
Wind: Westen 22.2 km/h
Temperatuur: 18°C
Dauwpunt: 16°C
Vochtigheid: 88%
Barometer: 1011 hPa
Bewolking: Grotendeels bewolkt
Zicht: meer dan 10 km
Bewolking: Licht bewolkt 800 ft,
Gedeeltelijk bewolkt 1100 ft,
Licht bewolkt 1500 ft,
Grotendeels bewolkt 1900 ft
EHBK 132055Z AUTO 26012KT 210V320 9999 FEW008 SCT011 FEW015CB BKN019 18/16 Q1011 NOSIG
ELLX - Luxemburg
Gewijzigd: 13-10-2019 23:20
Helder  
Helder  
   Wind: ZW 11.1 km/h
Wind: ZW 11.1 km/h
Temperatuur: 17°C
Dauwpunt: 12°C
Vochtigheid: 73%
Barometer: 1014 hPa
Zicht: meer dan 10 km
Bewolking: Helder
ELLX 132120Z 23006KT CAVOK 17/12 Q1014 NOSIG
EBOS - Oostende
Gewijzigd: 13-10-2019 22:50
Licht bewolkt  
Licht bewolkt  
   Wind: ZW 14.8 km/h
Wind: ZW 14.8 km/h
Temperatuur: 13°C
Dauwpunt: 11°C
Vochtigheid: 88%
Barometer: 1011 hPa
Bewolking: Licht bewolkt
Zicht: meer dan 10 km
Bewolking: Licht bewolkt 2000 ft
EBOS 132050Z 22008KT 9999 FEW020 13/11 Q1011 NOSIG

Script ontwikkeld door  Saratoga-weather.org Aangepast voor de template door  Weerstation Leuven

Apparatuur in gebruik:

Weerstation
Davis VP2

Weerprogramma
Meteobridge

Weercomputer
Asus WL -330N3G

Webleverancier
Onecom

Davis VP2

Meteobridge

Asus WL -330N3G

Onecom